Time;durP1;ratioP1;P1;durP2;ratioP2;P2;SDS_P1;SDS_P2;PMS_P1;PMS_P2;Temp;Humidity;BMP_temperature;BMP_pressure;BME280_temperature;BME280_humidity;BME280_pressure;Samples;Min_cycle;Max_cycle;Signal;HPM_P1;HPM_P2
2023/09/03 00:01:11;;;;;;;7.28;4.10;;;23.20;80.90;;;;;;5009778;28;20046;-55
2023/09/03 00:03:37;;;;;;;11.38;3.83;;;23.20;81.00;;;;;;4993553;28;20026;-56
2023/09/03 00:06:03;;;;;;;10.27;4.40;;;23.20;81.10;;;;;;4993337;28;20034;-55
2023/09/03 00:08:30;;;;;;;7.68;4.18;;;23.20;81.20;;;;;;5009740;28;20098;-55
2023/09/03 00:10:55;;;;;;;13.80;4.13;;;23.10;81.20;;;;;;5009850;28;20031;-55
2023/09/03 00:13:21;;;;;;;11.20;3.88;;;23.10;81.40;;;;;;5009543;28;20094;-55
2023/09/03 00:15:47;;;;;;;9.38;3.88;;;23.10;81.50;;;;;;4993242;28;20071;-57
2023/09/03 00:18:14;;;;;;;8.27;4.15;;;23.00;81.50;;;;;;5009611;28;20050;-56
2023/09/03 00:20:40;;;;;;;8.57;4.15;;;23.10;81.70;;;;;;5009576;28;20033;-55
2023/09/03 00:23:05;;;;;;;6.43;3.83;;;23.10;81.70;;;;;;5009658;28;20022;-55
2023/09/03 00:25:36;;;;;;;8.55;3.17;;;23.00;81.70;;;;;;5009655;28;20029;-55
2023/09/03 00:34:50;;;;;;;6.68;3.47;;;22.90;81.90;;;;;;5018236;28;20034;-55
2023/09/03 00:37:15;;;;;;;7.25;3.38;;;22.90;82.00;;;;;;5029311;28;20037;-56
2023/09/03 00:39:41;;;;;;;10.68;3.60;;;22.90;82.00;;;;;;5029015;28;20081;-54
2023/09/03 00:42:06;;;;;;;15.43;3.92;;;22.90;82.10;;;;;;5029446;28;20451;-55
2023/09/03 00:44:32;;;;;;;7.32;3.67;;;22.80;82.20;;;;;;5029027;28;20504;-56
2023/09/03 00:46:58;;;;;;;4.78;3.55;;;22.80;82.30;;;;;;5025491;28;20462;-55
2023/09/03 00:49:23;;;;;;;8.35;3.70;;;22.80;82.40;;;;;;5009271;28;20065;-55
2023/09/03 00:51:50;;;;;;;7.82;3.38;;;22.70;82.40;;;;;;5026918;28;20030;-55
2023/09/03 00:54:16;;;;;;;7.80;3.17;;;22.70;82.50;;;;;;5025938;28;20022;-55
2023/09/03 00:56:41;;;;;;;9.75;4.10;;;22.70;82.60;;;;;;5025913;28;20052;-55
2023/09/03 00:59:08;;;;;;;4.82;3.15;;;22.70;82.70;;;;;;5009191;28;20037;-55
2023/09/03 01:01:34;;;;;;;7.25;3.92;;;22.70;82.70;;;;;;5025337;28;20141;-56
2023/09/03 01:04:00;;;;;;;7.43;3.50;;;22.70;82.70;;;;;;5025555;28;20056;-55
2023/09/03 01:06:25;;;;;;;9.40;3.70;;;22.70;82.80;;;;;;5025441;28;20418;-54
2023/09/03 01:08:52;;;;;;;7.45;3.53;;;22.60;82.70;;;;;;5025378;28;20129;-55
2023/09/03 01:11:40;;;;;;;10.68;3.60;;;22.60;82.80;;;;;;5025812;28;20034;-55
2023/09/03 01:14:28;;;;;;;9.73;3.35;;;22.60;83.00;;;;;;5025248;28;20017;-55
2023/09/03 01:16:57;;;;;;;8.40;3.55;;;22.60;83.20;;;;;;5025620;28;20034;-56
2023/09/03 01:20:05;;;;;;;8.68;3.47;;;22.60;83.30;;;;;;5025451;28;20025;-55
2023/09/03 01:23:08;;;;;;;5.63;3.30;;;22.60;83.40;;;;;;5025423;28;20451;-55
2023/09/03 01:38:54;;;;;;;7.47;3.58;;;22.40;83.90;;;;;;5050653;28;20045;-55
2023/09/03 01:41:19;;;;;;;6.87;3.10;;;22.40;83.90;;;;;;5022455;28;20068;-55
2023/09/03 01:43:45;;;;;;;7.30;3.65;;;22.40;84.60;;;;;;4991999;28;20348;-55
2023/09/03 01:46:41;;;;;;;7.10;3.50;;;22.30;83.90;;;;;;4992262;28;20041;-55
2023/09/03 01:49:15;;;;;;;6.97;3.70;;;22.30;84.00;;;;;;5004689;28;20033;-56
2023/09/03 01:51:56;;;;;;;4.22;3.15;;;22.30;84.20;;;;;;5008356;28;20034;-55
2023/09/03 01:54:27;;;;;;;4.00;3.15;;;22.30;84.30;;;;;;4993806;28;20082;-56
2023/09/03 01:56:57;;;;;;;5.82;3.50;;;22.20;84.40;;;;;;4992416;28;20061;-55
2023/09/03 01:59:24;;;;;;;5.65;3.30;;;22.20;84.50;;;;;;4991866;28;20137;-55
2023/09/03 02:01:50;;;;;;;4.63;3.28;;;22.20;84.50;;;;;;4992052;28;20093;-55
2023/09/03 02:04:16;;;;;;;7.28;3.10;;;22.20;84.60;;;;;;4976056;28;20049;-55
2023/09/03 02:06:46;;;;;;;7.38;3.13;;;22.10;84.70;;;;;;4991956;28;20041;-55
2023/09/03 02:09:12;;;;;;;7.28;3.20;;;22.10;84.80;;;;;;5008176;28;20050;-55
2023/09/03 02:11:37;;;;;;;5.43;3.30;;;22.10;84.90;;;;;;5008468;28;20061;-56
2023/09/03 02:14:03;;;;;;;8.07;3.17;;;22.10;84.90;;;;;;5007864;28;20060;-55
2023/09/03 02:16:28;;;;;;;5.70;3.13;;;22.10;84.90;;;;;;4991661;28;20098;-55
2023/09/03 02:18:54;;;;;;;5.25;3.22;;;22.10;85.00;;;;;;5007842;28;20089;-55
2023/09/03 02:21:19;;;;;;;3.78;3.10;;;22.00;85.00;;;;;;5007688;28;20065;-55
2023/09/03 02:23:45;;;;;;;5.65;2.88;;;22.00;85.70;;;;;;4991592;28;20113;-55
2023/09/03 02:26:11;;;;;;;4.00;3.05;;;22.00;85.10;;;;;;5007675;28;20042;-55
2023/09/03 02:28:36;;;;;;;4.97;3.08;;;22.00;85.10;;;;;;5007733;28;20038;-56
2023/09/03 02:31:02;;;;;;;6.95;3.00;;;21.90;85.10;;;;;;5007630;28;20137;-55
2023/09/03 02:33:28;;;;;;;4.00;2.88;;;21.90;85.20;;;;;;5007754;28;20045;-55
2023/09/03 02:35:54;;;;;;;4.30;3.25;;;21.90;85.30;;;;;;5025402;28;20060;-55
2023/09/03 02:38:19;;;;;;;4.03;3.03;;;21.90;85.40;;;;;;5025254;28;20490;-55
2023/09/03 02:40:45;;;;;;;4.97;3.20;;;21.90;85.50;;;;;;5007531;28;20065;-55
2023/09/03 02:43:12;;;;;;;6.32;3.30;;;21.90;85.60;;;;;;5007500;28;20061;-55
2023/09/03 02:45:37;;;;;;;5.10;3.10;;;21.80;85.60;;;;;;5006816;28;20097;-55
2023/09/03 02:48:03;;;;;;;4.75;3.25;;;21.80;85.70;;;;;;5024858;28;20085;-55
2023/09/03 02:50:29;;;;;;;4.90;3.15;;;21.80;85.80;;;;;;5007178;28;20501;-55
2023/09/03 02:52:54;;;;;;;4.55;3.03;;;21.80;85.80;;;;;;5024759;28;20105;-55
2023/09/03 02:55:20;;;;;;;6.05;3.42;;;21.80;85.70;;;;;;5007114;28;20038;-55
2023/09/03 02:57:45;;;;;;;5.20;2.67;;;21.80;85.70;;;;;;5007199;28;20089;-55
2023/09/03 03:00:11;;;;;;;4.72;3.13;;;21.80;85.90;;;;;;5024706;28;20046;-55
2023/09/03 03:02:37;;;;;;;5.38;3.40;;;21.70;86.00;;;;;;5024851;28;20494;-55
2023/09/03 03:05:02;;;;;;;5.03;2.95;;;21.70;86.10;;;;;;5006939;28;20052;-55
2023/09/03 03:07:28;;;;;;;5.18;3.13;;;21.70;86.30;;;;;;5024801;28;20057;-56
2023/09/03 03:09:54;;;;;;;5.38;2.80;;;21.70;86.40;;;;;;5006538;28;20069;-55
2023/09/03 03:12:19;;;;;;;5.15;3.10;;;21.60;86.40;;;;;;5024721;28;20030;-55
2023/09/03 03:14:45;;;;;;;4.80;3.10;;;21.60;86.40;;;;;;5006764;28;20099;-55
2023/09/03 03:17:11;;;;;;;5.88;3.20;;;21.60;86.30;;;;;;5024714;28;20053;-55
2023/09/03 03:19:36;;;;;;;2.78;2.47;;;21.60;86.40;;;;;;5024680;28;20074;-55
2023/09/03 03:22:02;;;;;;;5.45;2.72;;;21.60;86.40;;;;;;5007011;28;20033;-55
2023/09/03 03:24:27;;;;;;;5.15;2.75;;;21.60;86.40;;;;;;5006814;28;20044;-56
2023/09/03 03:26:53;;;;;;;5.10;3.20;;;21.60;86.50;;;;;;5024417;28;20413;-55
2023/09/03 03:29:18;;;;;;;5.20;3.25;;;21.60;86.60;;;;;;5006616;28;20037;-55
2023/09/03 03:31:44;;;;;;;3.53;2.88;;;21.50;86.50;;;;;;5007789;28;20400;-55
2023/09/03 03:34:09;;;;;;;5.80;3.25;;;21.50;86.70;;;;;;4991570;28;20049;-55
2023/09/03 03:36:35;;;;;;;5.68;3.03;;;21.50;86.80;;;;;;4974790;28;20462;-55
2023/09/03 03:39:00;;;;;;;4.15;2.83;;;21.50;86.90;;;;;;5023938;28;20049;-56
2023/09/03 03:41:26;;;;;;;6.65;3.25;;;21.50;87.00;;;;;;5006102;28;20042;-55
2023/09/03 03:43:52;;;;;;;5.63;3.10;;;21.50;87.00;;;;;;4974488;28;20045;-55
2023/09/03 03:46:19;;;;;;;4.97;2.97;;;21.40;86.90;;;;;;5007006;28;20046;-56
2023/09/03 03:48:44;;;;;;;4.70;3.10;;;21.40;87.00;;;;;;5006798;28;20037;-55
2023/09/03 03:51:10;;;;;;;4.40;2.95;;;21.40;87.10;;;;;;5006559;28;20217;-55
2023/09/03 03:53:36;;;;;;;4.32;3.25;;;21.40;87.20;;;;;;5006696;28;20036;-55
2023/09/03 03:56:03;;;;;;;6.30;3.08;;;21.40;87.20;;;;;;5024371;28;20049;-55
2023/09/03 03:58:29;;;;;;;4.78;3.22;;;21.40;87.40;;;;;;5024103;28;20041;-55
2023/09/03 04:00:55;;;;;;;3.08;2.55;;;21.40;87.50;;;;;;4989672;28;20048;-55
2023/09/03 04:03:22;;;;;;;4.38;2.72;;;21.30;87.50;;;;;;5008432;28;20054;-55
2023/09/03 04:05:58;;;;;;;5.38;3.05;;;21.30;87.50;;;;;;5007464;28;20045;-54
2023/09/03 04:08:31;;;;;;;7.15;3.33;;;21.30;87.50;;;;;;4990624;28;20050;-55
2023/09/03 04:10:58;;;;;;;18.25;3.67;;;21.30;87.50;;;;;;5024092;28;20042;-56
2023/09/03 04:13:24;;;;;;;12.68;3.50;;;21.30;87.70;;;;;;5006284;28;20431;-54
2023/09/03 04:15:50;;;;;;;11.38;3.97;;;21.30;87.70;;;;;;5006186;28;20041;-55
2023/09/03 04:18:15;;;;;;;7.53;3.28;;;21.30;87.70;;;;;;4990102;28;20037;-55
2023/09/03 04:20:41;;;;;;;7.50;3.47;;;21.30;87.70;;;;;;5006586;28;20061;-56
2023/09/03 04:23:06;;;;;;;12.85;3.72;;;21.20;88.30;;;;;;5009680;28;20106;-55
2023/09/03 04:25:32;;;;;;;9.63;3.20;;;21.20;87.80;;;;;;5009687;28;20045;-55
2023/09/03 04:27:57;;;;;;;9.40;3.33;;;21.20;87.90;;;;;;5009882;28;20133;-55
2023/09/03 04:30:23;;;;;;;6.38;3.80;;;21.20;88.00;;;;;;5027385;28;20095;-55
2023/09/03 04:32:48;;;;;;;12.70;4.00;;;21.20;88.00;;;;;;5027661;28;20069;-55
2023/09/03 04:35:14;;;;;;;7.10;3.55;;;21.10;88.10;;;;;;5027340;28;20038;-55
2023/09/03 04:37:40;;;;;;;11.75;3.53;;;21.20;88.20;;;;;;5009540;28;20030;-55
2023/09/03 04:40:08;;;;;;;7.70;3.80;;;21.10;88.10;;;;;;5009341;28;20054;-55
2023/09/03 04:42:33;;;;;;;14.40;3.35;;;21.10;88.30;;;;;;5027347;28;20385;-55
2023/09/03 04:44:59;;;;;;;11.18;3.35;;;21.10;89.00;;;;;;5009633;28;20038;-55
2023/09/03 04:50:07;;;;;;;7.10;3.67;;;21.10;88.60;;;;;;5047672;28;20046;-89
2023/09/03 04:52:34;;;;;;;7.30;3.13;;;21.10;88.70;;;;;;5015939;28;20029;-89
2023/09/03 04:54:59;;;;;;;8.55;3.30;;;21.10;88.60;;;;;;5032182;28;20085;-89
2023/09/03 04:57:25;;;;;;;5.68;3.10;;;21.10;88.90;;;;;;5035398;28;20505;-89
2023/09/03 04:59:51;;;;;;;6.55;3.58;;;21.10;89.00;;;;;;5051847;28;20041;-89
2023/09/03 05:02:17;;;;;;;7.25;3.17;;;21.00;89.00;;;;;;5052395;28;20037;-89
2023/09/03 05:04:42;;;;;;;7.78;3.50;;;21.00;89.70;;;;;;5035448;28;20033;-87
2023/09/03 05:07:08;;;;;;;7.13;3.72;;;21.00;89.00;;;;;;5035242;28;20033;-88
2023/09/03 05:09:33;;;;;;;5.53;2.88;;;21.00;89.10;;;;;;5051547;28;20071;-88
2023/09/03 05:11:59;;;;;;;5.35;2.97;;;21.00;89.10;;;;;;5034940;28;20035;-89
2023/09/03 05:14:24;;;;;;;8.70;3.47;;;21.00;89.30;;;;;;5053973;28;20606;-91
2023/09/03 05:16:50;;;;;;;4.55;3.17;;;21.00;89.50;;;;;;5038926;28;20132;-88
2023/09/03 05:19:16;;;;;;;8.80;3.67;;;21.00;89.80;;;;;;5038171;28;20060;-90
2023/09/03 05:21:42;;;;;;;8.32;2.70;;;21.00;89.80;;;;;;5036924;28;20044;-90
2023/09/03 05:24:08;;;;;;;7.57;3.45;;;21.10;90.00;;;;;;5019614;28;20067;-89
2023/09/03 05:26:34;;;;;;;9.38;3.25;;;20.90;89.70;;;;;;5036245;28;20056;-92
2023/09/03 05:29:01;;;;;;;8.18;3.10;;;21.10;90.00;;;;;;5038415;28;20167;-88
2023/09/03 05:31:30;;;;;;;7.95;3.60;;;20.90;89.80;;;;;;5038682;28;20041;-91
2023/09/03 05:33:59;;;;;;;4.30;3.03;;;21.00;90.10;;;;;;5021912;28;20104;-88
2023/09/03 05:36:28;;;;;;;8.32;3.25;;;20.90;89.80;;;;;;5037572;28;20040;-89
2023/09/03 05:38:54;;;;;;;5.40;2.90;;;20.90;90.10;;;;;;5053066;28;20056;-90
2023/09/03 05:41:20;;;;;;;12.60;3.10;;;21.00;90.00;;;;;;5036344;28;20032;-92
2023/09/03 05:43:46;;;;;;;6.45;3.28;;;20.80;90.00;;;;;;5043932;28;20037;-93
2023/09/03 05:46:11;;;;;;;5.55;2.90;;;20.80;90.10;;;;;;5016298;28;20179;-89
2023/09/03 05:48:37;;;;;;;6.25;2.97;;;20.80;90.00;;;;;;4999276;28;20042;-91
2023/09/03 05:51:05;;;;;;;3.80;2.83;;;20.80;89.90;;;;;;5049644;28;20030;-91
2023/09/03 05:53:32;;;;;;;5.93;3.13;;;20.90;89.90;;;;;;5016035;28;20501;-93
2023/09/03 05:56:10;;;;;;;3.50;2.70;;;20.80;89.80;;;;;;5015883;28;20033;-91
2023/09/03 05:58:36;;;;;;;3.63;2.88;;;20.80;89.90;;;;;;5020259;28;20056;-91
2023/09/03 06:01:06;;;;;;;8.25;2.95;;;20.80;90.00;;;;;;5022805;28;20037;-90
2023/09/03 06:03:32;;;;;;;8.63;3.13;;;20.80;90.00;;;;;;5007973;28;20038;-91
2023/09/03 06:06:09;;;;;;;6.78;3.17;;;20.80;90.10;;;;;;5040069;28;20041;-93
2023/09/03 06:08:36;;;;;;;3.90;2.75;;;20.80;90.10;;;;;;5004752;28;20045;-86
2023/09/03 06:11:02;;;;;;;3.88;2.80;;;20.80;90.00;;;;;;5018477;28;20502;-92
2023/09/03 06:13:33;;;;;;;3.78;3.03;;;20.80;90.00;;;;;;5006271;28;20061;-91
2023/09/03 06:15:59;;;;;;;4.72;3.35;;;20.80;90.00;;;;;;5019124;28;20029;-89
2023/09/03 06:18:26;;;;;;;6.47;3.20;;;21.00;90.20;;;;;;5018371;28;20033;-91
2023/09/03 06:20:52;;;;;;;5.50;3.10;;;20.90;90.10;;;;;;5002469;28;20030;-88
2023/09/03 06:23:21;;;;;;;5.50;3.05;;;20.80;90.30;;;;;;4999811;28;20046;-88
2023/09/03 06:25:47;;;;;;;30.05;6.05;;;20.80;90.10;;;;;;5016022;28;20477;-88
2023/09/03 06:28:13;;;;;;;63.08;7.60;;;20.80;90.20;;;;;;4998328;28;20033;-89
2023/09/03 06:30:38;;;;;;;36.38;5.70;;;20.80;90.20;;;;;;4998549;28;20037;-89
2023/09/03 06:33:04;;;;;;;38.90;6.50;;;20.80;90.20;;;;;;4998554;28;20029;-90
2023/09/03 06:35:30;;;;;;;27.63;5.68;;;20.80;90.30;;;;;;4998232;28;20033;-91
2023/09/03 06:37:56;;;;;;;27.17;6.43;;;20.80;90.30;;;;;;5014374;28;20041;-89
2023/09/03 06:40:22;;;;;;;42.25;7.47;;;20.90;90.40;;;;;;5014869;28;20064;-92
2023/09/03 06:42:48;;;;;;;57.95;7.15;;;20.90;90.50;;;;;;4998506;28;20033;-89
2023/09/03 06:45:14;;;;;;;49.53;7.18;;;20.90;90.50;;;;;;5014916;28;20041;-91
2023/09/03 06:47:43;;;;;;;40.50;6.57;;;20.90;90.70;;;;;;5031962;28;20109;-91
2023/09/03 06:50:08;;;;;;;29.80;5.80;;;20.90;90.40;;;;;;5014771;28;20045;-91
2023/09/03 06:52:37;;;;;;;35.53;6.55;;;20.90;90.40;;;;;;5015015;28;20056;-91
2023/09/03 06:55:02;;;;;;;24.60;5.70;;;20.90;90.30;;;;;;4999037;28;20117;-90
2023/09/03 06:57:31;;;;;;;24.42;6.50;;;20.90;90.40;;;;;;5014730;28;20356;-91
2023/09/03 06:59:56;;;;;;;32.03;6.57;;;20.90;90.30;;;;;;5031211;28;20056;-89
2023/09/03 07:02:22;;;;;;;32.58;6.45;;;20.90;90.60;;;;;;5015294;28;20037;-91
2023/09/03 07:04:48;;;;;;;32.05;6.55;;;20.90;90.50;;;;;;4998772;28;20029;-90
2023/09/03 07:07:14;;;;;;;35.80;6.75;;;20.90;90.80;;;;;;4998721;28;20049;-90
2023/09/03 07:09:40;;;;;;;34.13;6.80;;;20.90;90.60;;;;;;4999155;28;20100;-92
2023/09/03 07:12:06;;;;;;;27.95;6.43;;;20.90;90.50;;;;;;5016579;28;20041;-90
2023/09/03 07:14:32;;;;;;;27.75;6.68;;;20.60;90.40;;;;;;5033238;28;20037;-92
2023/09/03 07:16:59;;;;;;;26.98;5.63;;;20.90;90.60;;;;;;5000234;28;20152;-92
2023/09/03 07:19:25;;;;;;;24.70;6.40;;;20.90;90.50;;;;;;5015058;28;20052;-91
2023/09/03 07:21:51;;;;;;;26.98;6.50;;;20.90;90.80;;;;;;5013933;28;20033;-92
2023/09/03 07:24:17;;;;;;;30.02;6.15;;;20.90;90.90;;;;;;5013857;28;20029;-90
2023/09/03 07:26:43;;;;;;;34.17;6.47;;;20.90;90.90;;;;;;4998016;28;20033;-91
2023/09/03 07:29:08;;;;;;;25.27;5.97;;;20.80;90.80;;;;;;5015603;28;20038;-92
2023/09/03 07:31:37;;;;;;;23.20;6.05;;;20.90;90.90;;;;;;5014706;28;20033;-91
2023/09/03 07:34:02;;;;;;;18.50;5.65;;;20.90;90.80;;;;;;4998701;28;20064;-92
2023/09/03 07:36:28;;;;;;;27.30;5.90;;;21.00;90.90;;;;;;5015020;28;20034;-93
2023/09/03 07:38:54;;;;;;;24.80;6.50;;;21.00;91.00;;;;;;5015675;28;20041;-93
2023/09/03 07:41:20;;;;;;;18.33;5.32;;;21.00;90.90;;;;;;4999966;28;20037;-91
2023/09/03 07:43:46;;;;;;;23.55;5.70;;;21.00;91.00;;;;;;5021128;28;20048;-92
2023/09/03 07:46:12;;;;;;;17.40;5.03;;;20.90;90.80;;;;;;5017223;28;20061;-93
2023/09/03 07:48:37;;;;;;;22.95;5.95;;;21.00;90.90;;;;;;5015555;28;20498;-92
2023/09/03 07:51:04;;;;;;;19.48;5.55;;;20.90;90.90;;;;;;5048750;28;20120;-94
2023/09/03 07:53:32;;;;;;;21.98;5.22;;;21.00;90.90;;;;;;5015191;28;20026;-92
2023/09/03 07:55:58;;;;;;;17.58;4.65;;;21.00;90.80;;;;;;5035775;28;20033;-91
2023/09/03 07:58:24;;;;;;;16.95;5.13;;;21.00;90.90;;;;;;5053754;28;20129;-92
2023/09/03 08:00:50;;;;;;;18.95;5.65;;;21.00;90.70;;;;;;5022888;28;20033;-94
2023/09/03 08:03:16;;;;;;;22.45;4.97;;;21.00;90.70;;;;;;5003611;28;20041;-92
2023/09/03 08:05:42;;;;;;;12.32;4.93;;;21.00;90.70;;;;;;5025890;28;20042;-87
2023/09/03 08:08:07;;;;;;;14.00;5.03;;;21.00;90.70;;;;;;5014117;28;20030;-85
2023/09/03 08:10:33;;;;;;;13.80;5.13;;;21.00;90.60;;;;;;5030918;28;20068;-88
2023/09/03 08:12:59;;;;;;;13.55;4.93;;;21.00;90.80;;;;;;5052441;28;20034;-90
2023/09/03 08:15:25;;;;;;;12.95;4.93;;;21.10;91.00;;;;;;5051388;28;20065;-91
2023/09/03 08:17:51;;;;;;;11.63;4.55;;;21.10;91.10;;;;;;5037101;28;20089;-94
2023/09/03 08:20:17;;;;;;;17.42;5.63;;;21.00;91.10;;;;;;5018216;28;20045;-91
2023/09/03 08:22:43;;;;;;;14.63;5.10;;;21.10;91.10;;;;;;5030123;28;20042;-94
2023/09/03 08:25:09;;;;;;;18.20;5.10;;;21.20;91.20;;;;;;5029622;28;20092;-91
2023/09/03 08:27:35;;;;;;;14.80;5.53;;;21.20;91.30;;;;;;5029406;28;20038;-89
2023/09/03 08:30:00;;;;;;;19.00;4.70;;;21.10;91.40;;;;;;5046092;28;20042;-90
2023/09/03 08:32:31;;;;;;;15.65;4.82;;;21.20;91.30;;;;;;5029476;28;20046;-92
2023/09/03 08:34:57;;;;;;;15.68;5.25;;;21.20;91.10;;;;;;5030874;28;20026;-90
2023/09/03 08:37:26;;;;;;;13.73;4.72;;;21.20;91.00;;;;;;5030228;28;20106;-92
2023/09/03 08:39:52;;;;;;;18.48;5.70;;;21.20;91.00;;;;;;5029908;28;20053;-92
2023/09/03 08:42:18;;;;;;;34.35;6.70;;;21.40;91.20;;;;;;5012483;28;20046;-88
2023/09/03 08:44:51;;;;;;;31.65;6.70;;;21.30;91.60;;;;;;5029319;28;20037;-87
2023/09/03 08:47:17;;;;;;;49.63;7.88;;;21.40;91.40;;;;;;5010663;28;20034;-87
2023/09/03 08:49:44;;;;;;;41.30;8.35;;;21.30;91.50;;;;;;5010907;28;20038;-86
2023/09/03 08:52:10;;;;;;;59.33;8.35;;;21.40;91.30;;;;;;5010248;28;20054;-86
2023/09/03 08:54:37;;;;;;;49.83;8.05;;;21.40;91.40;;;;;;5011743;28;20058;-88
2023/09/03 08:57:04;;;;;;;69.95;10.45;;;21.40;91.40;;;;;;5036404;28;20042;-90
2023/09/03 08:59:33;;;;;;;59.95;9.85;;;21.40;91.60;;;;;;5030331;28;20033;-93
2023/09/03 09:01:59;;;;;;;50.53;9.48;;;21.40;91.70;;;;;;5031293;28;20065;-88
2023/09/03 09:04:27;;;;;;;69.00;10.75;;;21.40;91.50;;;;;;5014363;28;20026;-92
2023/09/03 09:06:53;;;;;;;49.38;9.75;;;21.50;91.80;;;;;;5029108;28;20101;-88
2023/09/03 09:09:19;;;;;;;69.40;11.30;;;21.60;92.00;;;;;;5013936;28;20451;-87
2023/09/03 09:11:52;;;;;;;59.05;11.02;;;21.50;92.10;;;;;;5010037;28;20038;-90
2023/09/03 09:14:22;;;;;;;77.25;12.38;;;21.50;91.90;;;;;;5012366;28;20027;-92
2023/09/03 09:16:48;;;;;;;75.88;11.93;;;21.40;91.90;;;;;;4995266;28;20042;-88
2023/09/03 09:19:17;;;;;;;68.53;11.82;;;21.60;92.20;;;;;;5014017;28;20096;-87
2023/09/03 09:21:43;;;;;;;118.20;14.90;;;21.70;92.20;;;;;;5031722;28;20037;-87
2023/09/03 09:24:08;;;;;;;109.82;14.57;;;21.70;92.30;;;;;;5012492;28;20049;-86
2023/09/03 09:26:34;;;;;;;123.80;18.05;;;21.70;92.20;;;;;;5030835;28;20371;-94
2023/09/03 09:29:02;;;;;;;101.55;13.75;;;21.80;92.50;;;;;;5012595;28;20070;-93
2023/09/03 09:31:32;;;;;;;115.13;14.38;;;21.80;92.40;;;;;;5014065;28;20037;-90
2023/09/03 09:33:59;;;;;;;89.25;14.90;;;21.80;92.10;;;;;;5013450;28;20038;-90
2023/09/03 09:36:26;;;;;;;100.50;16.48;;;21.90;92.30;;;;;;5031291;28;20101;-88
2023/09/03 09:38:52;;;;;;;178.43;22.80;;;22.00;92.70;;;;;;5012303;28;20145;-86
2023/09/03 09:41:25;;;;;;;105.38;16.17;;;22.00;92.80;;;;;;5011353;28;20037;-88
2023/09/03 09:43:51;;;;;;;177.90;22.20;;;22.00;92.60;;;;;;5023305;28;20101;-92
2023/09/03 09:46:31;;;;;;;162.77;21.00;;;22.10;92.90;;;;;;5028965;28;20038;-87
2023/09/03 09:48:58;;;;;;;203.02;24.55;;;22.30;92.90;;;;;;5025130;28;20041;-87
2023/09/03 09:51:24;;;;;;;195.20;21.30;;;22.20;92.70;;;;;;5023316;28;20030;-94
2023/09/03 09:53:56;;;;;;;168.85;20.90;;;22.30;92.90;;;;;;5019055;28;20037;-88
2023/09/03 09:56:29;;;;;;;161.73;20.50;;;22.30;92.60;;;;;;5025855;28;20057;-90
2023/09/03 09:58:57;;;;;;;147.27;18.70;;;22.30;92.40;;;;;;5013716;28;20041;-88
2023/09/03 10:01:27;;;;;;;209.63;21.95;;;22.40;92.60;;;;;;5025938;28;20038;-88
2023/09/03 10:03:53;;;;;;;204.65;23.17;;;22.40;92.50;;;;;;5030072;28;20033;-91
2023/09/03 10:06:20;;;;;;;226.55;25.92;;;22.50;92.60;;;;;;5012466;28;20049;-90
2023/09/03 10:08:46;;;;;;;168.23;22.23;;;22.50;92.40;;;;;;5009312;28;20034;-92
2023/09/03 10:11:15;;;;;;;172.38;22.80;;;22.60;92.30;;;;;;5012817;28;20034;-88
2023/09/03 10:13:42;;;;;;;138.93;20.13;;;22.60;92.40;;;;;;5013770;28;20030;-91
2023/09/03 10:16:09;;;;;;;151.00;21.42;;;22.60;92.30;;;;;;5025325;28;20038;-91
2023/09/03 10:18:47;;;;;;;167.27;21.95;;;22.70;92.20;;;;;;5006220;28;20034;-91
2023/09/03 10:21:33;;;;;;;168.88;23.55;;;22.80;92.20;;;;;;5013365;28;20038;-88
2023/09/03 10:24:00;;;;;;;189.73;23.98;;;22.90;92.10;;;;;;5018034;28;20041;-90
2023/09/03 10:26:31;;;;;;;151.32;20.92;;;22.90;92.30;;;;;;5028916;28;20038;-88
2023/09/03 10:29:07;;;;;;;232.45;25.77;;;22.90;92.20;;;;;;5014918;28;20046;-90
2023/09/03 10:31:33;;;;;;;158.95;22.95;;;23.10;92.10;;;;;;5024663;28;20026;-90
2023/09/03 10:33:59;;;;;;;196.43;22.65;;;23.10;92.10;;;;;;5042950;28;20089;-87
2023/09/03 10:36:25;;;;;;;183.40;23.35;;;23.10;92.00;;;;;;5006486;28;20068;-86
2023/09/03 10:38:51;;;;;;;169.20;21.98;;;23.20;92.00;;;;;;5025438;28;20038;-90
2023/09/03 10:41:18;;;;;;;133.68;20.63;;;23.00;91.90;;;;;;5024913;28;20069;-89
2023/09/03 10:43:46;;;;;;;149.93;21.08;;;23.40;91.70;;;;;;5011117;28;20037;-86
2023/09/03 10:46:12;;;;;;;178.65;22.10;;;23.30;91.50;;;;;;5033261;28;20048;-93
2023/09/03 10:48:38;;;;;;;165.23;21.45;;;23.40;92.00;;;;;;5009438;28;20042;-91
2023/09/03 10:51:04;;;;;;;189.48;22.38;;;23.50;91.80;;;;;;5041100;28;20034;-87
2023/09/03 10:53:43;;;;;;;171.60;21.35;;;23.60;91.80;;;;;;5007345;28;20038;-89
2023/09/03 10:56:17;;;;;;;173.45;21.50;;;23.50;91.40;;;;;;4984955;28;20035;-87
2023/09/03 10:59:01;;;;;;;156.80;20.45;;;23.60;91.40;;;;;;4985457;28;20034;-86
2023/09/03 11:01:31;;;;;;;141.45;19.27;;;23.60;91.40;;;;;;5011987;28;20045;-89
2023/09/03 11:04:01;;;;;;;150.93;18.42;;;23.70;91.20;;;;;;4986564;28;20038;-85
2023/09/03 11:06:28;;;;;;;131.95;19.35;;;23.70;91.00;;;;;;5006794;28;20045;-88
2023/09/03 11:09:07;;;;;;;134.23;18.25;;;23.80;91.10;;;;;;5017265;28;20037;-88
2023/09/03 11:11:38;;;;;;;151.50;19.50;;;23.80;91.00;;;;;;5025504;28;20041;-88
2023/09/03 11:14:04;;;;;;;152.02;19.80;;;23.90;91.20;;;;;;5003642;28;20030;-89
2023/09/03 11:16:42;;;;;;;152.63;19.13;;;24.00;90.80;;;;;;4984746;28;20054;-89
2023/09/03 11:19:10;;;;;;;178.70;21.08;;;23.90;90.70;;;;;;5018138;28;20010;-89
2023/09/03 11:21:36;;;;;;;126.95;18.23;;;24.10;90.80;;;;;;5026048;28;20046;-90
2023/09/03 11:24:18;;;;;;;151.07;19.23;;;24.10;90.60;;;;;;4989831;28;20042;-93
2023/09/03 11:26:44;;;;;;;109.00;16.63;;;24.10;90.40;;;;;;5015485;28;20045;-92
2023/09/03 11:29:20;;;;;;;138.75;18.00;;;24.40;90.20;;;;;;5023163;28;20533;-90
2023/09/03 11:31:49;;;;;;;146.82;18.50;;;24.30;90.00;;;;;;5021190;28;20039;-94
2023/09/03 11:34:19;;;;;;;148.95;18.08;;;24.40;90.00;;;;;;5025197;28;20048;-88
2023/09/03 11:36:45;;;;;;;137.48;18.13;;;24.40;90.10;;;;;;5015464;28;20035;-92
2023/09/03 11:39:17;;;;;;;138.77;18.10;;;24.50;89.70;;;;;;5009142;28;20054;-94
2023/09/03 11:41:46;;;;;;;147.43;18.67;;;24.50;89.20;;;;;;5021932;28;20042;-92
2023/09/03 11:44:16;;;;;;;170.05;22.38;;;24.60;89.30;;;;;;5010449;28;20042;-92
2023/09/03 11:46:58;;;;;;;182.30;20.55;;;24.70;89.20;;;;;;5011731;28;20065;-94
2023/09/03 11:49:24;;;;;;;180.02;22.35;;;24.70;88.80;;;;;;5026696;28;20042;-88
2023/09/03 11:51:52;;;;;;;160.13;21.75;;;24.80;89.20;;;;;;5025983;28;20026;-93
2023/09/03 11:54:24;;;;;;;166.00;21.23;;;24.90;88.50;;;;;;5009746;28;20042;-88
2023/09/03 11:56:51;;;;;;;151.25;20.20;;;24.90;88.00;;;;;;5009047;28;20030;-88
2023/09/03 11:59:17;;;;;;;145.95;20.63;;;25.00;87.80;;;;;;5026517;28;20045;-89
2023/09/03 12:01:46;;;;;;;153.43;19.70;;;25.10;87.70;;;;;;5026677;28;20046;-87
2023/09/03 12:04:12;;;;;;;119.93;19.05;;;25.10;87.30;;;;;;5000704;28;20061;-90
2023/09/03 12:06:43;;;;;;;130.25;17.63;;;25.20;87.30;;;;;;5022870;28;20041;-92
2023/09/03 12:16:11;;;;;;;158.30;20.13;;;25.40;86.10;;;;;;5023647;28;20029;-88
2023/09/03 12:27:09;;;;;;;156.07;19.65;;;25.60;85.00;;;;;;4890406;26;20061;-60
2023/09/03 12:29:36;;;;;;;172.52;22.13;;;25.70;84.90;;;;;;5028302;28;20043;-59
2023/09/03 12:32:14;;;;;;;171.43;21.65;;;25.70;84.70;;;;;;5044968;28;20060;-59
2023/09/03 12:34:40;;;;;;;166.77;21.17;;;25.80;84.60;;;;;;5061653;28;20029;-59
2023/09/03 12:37:07;;;;;;;159.25;20.88;;;25.80;84.00;;;;;;5043978;28;20033;-59
2023/09/03 12:39:36;;;;;;;150.70;20.42;;;25.80;83.60;;;;;;5043285;28;20152;-59
2023/09/03 12:42:03;;;;;;;167.27;20.48;;;25.90;83.50;;;;;;5045486;28;20045;-60
2023/09/03 12:44:29;;;;;;;149.68;21.42;;;26.00;83.40;;;;;;5066080;28;20093;-59
2023/09/03 12:46:55;;;;;;;161.05;19.90;;;26.00;83.30;;;;;;5059155;28;20048;-59
2023/09/03 12:49:21;;;;;;;170.05;20.15;;;26.20;83.50;;;;;;5064188;28;20053;-59
2023/09/03 12:51:47;;;;;;;153.15;21.27;;;26.20;83.30;;;;;;5060672;28;20051;-60
2023/09/03 12:54:13;;;;;;;171.90;21.88;;;26.20;83.10;;;;;;5062326;28;20033;-60
2023/09/03 12:56:39;;;;;;;144.32;18.80;;;26.20;83.40;;;;;;5045968;28;20104;-59
2023/09/03 12:59:05;;;;;;;153.65;19.30;;;26.30;82.60;;;;;;5028464;28;20579;-59
2023/09/03 13:01:40;;;;;;;152.60;19.92;;;26.30;82.20;;;;;;5048288;28;20086;-59
2023/09/03 13:19:07;;;;;;;147.10;19.70;;;26.50;80.70;;;;;;5063605;28;20045;-55
2023/09/03 13:21:35;;;;;;;111.93;17.45;;;26.60;80.60;;;;;;5048291;28;20029;-55
2023/09/03 13:24:02;;;;;;;133.43;17.65;;;26.70;81.10;;;;;;5064876;28;20048;-55
2023/09/03 13:26:27;;;;;;;107.22;16.88;;;26.70;80.20;;;;;;5061188;28;20045;-56
2023/09/03 13:28:53;;;;;;;143.52;17.58;;;26.80;80.00;;;;;;5059986;28;20045;-55
2023/09/03 13:31:21;;;;;;;126.05;17.40;;;26.80;79.60;;;;;;5043095;28;20081;-55